Time;durP1;ratioP1;P1;durP2;ratioP2;P2;SDS_P1;SDS_P2;PMS_P1;PMS_P2;Temp;Humidity;BMP_temperature;BMP_pressure;BME280_temperature;BME280_humidity;BME280_pressure;Samples;Min_cycle;Max_cycle;Signal;HPM_P1;HPM_P2
2022/02/23 00:00:47;;;;;;;2.33;1.20;;;;;;;2.35;65.72;97552.66;5048272;28;20049;-69
2022/02/23 00:03:13;;;;;;;4.10;1.30;;;;;;;2.22;66.34;97561.34;5048281;28;20048;-69
2022/02/23 00:05:40;;;;;;;2.75;1.30;;;;;;;2.34;65.74;97539.44;5047593;28;20052;-69
2022/02/23 00:08:06;;;;;;;2.47;1.10;;;;;;;2.52;65.42;97548.81;5045839;28;20505;-69
2022/02/23 00:10:33;;;;;;;3.65;1.40;;;;;;;2.48;65.30;97543.16;5046707;28;20045;-69
2022/02/23 00:12:59;;;;;;;3.20;1.40;;;;;;;2.57;65.21;97551.47;5046942;28;20056;-68
2022/02/23 00:15:25;;;;;;;4.18;1.58;;;;;;;2.57;64.90;97554.16;5046881;28;20048;-71
2022/02/23 00:17:53;;;;;;;3.00;1.30;;;;;;;2.62;64.65;97548.75;5047782;28;20140;-70
2022/02/23 00:20:19;;;;;;;;;;;;;;;2.58;64.97;97571.97;5029613;28;20041;-69
2022/02/23 00:22:45;;;;;;;2.97;1.30;;;;;;;2.38;65.39;97549.41;5047446;28;19931;-70
2022/02/23 00:25:11;;;;;;;2.83;1.38;;;;;;;2.53;64.90;97559.31;5043702;28;20037;-71
2022/02/23 00:27:38;;;;;;;1.83;1.25;;;;;;;2.38;65.00;97533.22;5030361;28;20045;-71
2022/02/23 00:30:06;;;;;;;4.78;1.40;;;;;;;2.35;65.12;97533.78;5046169;28;20045;-71
2022/02/23 00:32:32;;;;;;;1.95;1.10;;;;;;;2.38;65.17;97580.94;5047542;28;20450;-69
2022/02/23 00:34:58;;;;;;;3.65;1.40;;;;;;;2.47;64.98;97568.53;5046981;28;20065;-69
2022/02/23 00:37:24;;;;;;;3.08;1.27;;;;;;;2.38;65.26;97584.47;5062753;28;20071;-70
2022/02/23 00:39:51;;;;;;;2.40;1.10;;;;;;;2.46;65.13;97580.41;5029724;28;20452;-70
2022/02/23 00:42:17;;;;;;;3.17;1.30;;;;;;;2.30;65.36;97568.06;5042779;28;20056;-70
2022/02/23 00:44:44;;;;;;;2.75;1.10;;;;;;;2.43;65.43;97578.25;5046116;28;20156;-71
2022/02/23 00:47:10;;;;;;;2.07;1.20;;;;;;;2.47;65.15;97576.63;5045119;28;20055;-71
2022/02/23 00:49:37;;;;;;;2.58;1.30;;;;;;;2.54;64.88;97579.81;5044265;28;20056;-71
2022/02/23 00:52:06;;;;;;;4.28;1.30;;;;;;;2.53;64.69;97582.78;5047366;28;20052;-70
2022/02/23 00:54:32;;;;;;;1.77;1.10;;;;;;;2.51;64.70;97552.59;5046346;28;20053;-69
2022/02/23 00:56:59;;;;;;;3.33;1.27;;;;;;;2.65;64.81;97582.47;5057482;28;20087;-70
2022/02/23 00:59:25;;;;;;;2.75;1.38;;;;;;;2.74;64.54;97566.50;5046558;28;20049;-68
2022/02/23 01:01:52;;;;;;;2.88;1.40;;;;;;;2.61;64.58;97598.41;5046141;28;20509;-70
2022/02/23 01:04:18;;;;;;;1.87;1.20;;;;;;;2.65;64.71;97595.97;5048339;28;20576;-71
2022/02/23 01:06:44;;;;;;;3.20;1.20;;;;;;;2.48;65.03;97607.06;5043238;28;20099;-70
2022/02/23 01:09:10;;;;;;;2.08;1.05;;;;;;;2.57;64.86;97597.34;5044131;28;20467;-70
2022/02/23 01:11:37;;;;;;;3.10;1.17;;;;;;;2.37;64.94;97582.03;5045552;28;20052;-70
2022/02/23 01:14:03;;;;;;;3.30;1.30;;;;;;;2.52;65.02;97614.34;5046431;28;20513;-70
2022/02/23 01:16:29;;;;;;;2.45;1.30;;;;;;;2.53;65.06;97613.28;5042592;28;20053;-70
2022/02/23 01:18:56;;;;;;;1.52;1.10;;;;;;;2.37;65.33;97614.41;5044232;28;20049;-70
2022/02/23 01:21:22;;;;;;;2.30;1.25;;;;;;;2.56;65.00;97620.00;5061823;28;20509;-70
2022/02/23 01:23:48;;;;;;;2.47;1.17;;;;;;;2.59;64.88;97614.06;5047813;28;20048;-71
2022/02/23 01:26:15;;;;;;;2.58;1.17;;;;;;;2.53;64.78;97609.78;5049318;28;20049;-70
2022/02/23 01:28:41;;;;;;;2.78;1.38;;;;;;;2.61;64.67;97608.41;5048537;28;20143;-71
2022/02/23 01:31:08;;;;;;;2.45;1.13;;;;;;;2.74;64.47;97597.00;5047054;28;20400;-70
2022/02/23 01:33:34;;;;;;;2.50;1.30;;;;;;;2.63;64.88;97625.91;5044720;28;20509;-70
2022/02/23 01:36:03;;;;;;;2.42;1.10;;;;;;;2.64;64.90;97622.13;5047984;28;20048;-70
2022/02/23 01:38:28;;;;;;;2.60;1.02;;;;;;;2.63;64.92;97642.09;5049770;28;20048;-69
2022/02/23 01:40:55;;;;;;;3.00;1.30;;;;;;;2.54;64.96;97630.28;5048062;28;20131;-70
2022/02/23 01:43:21;;;;;;;2.00;1.15;;;;;;;2.39;65.57;97631.13;5049739;28;20049;-71
2022/02/23 01:45:47;;;;;;;4.25;1.45;;;;;;;2.32;66.01;97628.72;5049668;28;20570;-69
2022/02/23 01:48:14;;;;;;;3.38;1.05;;;;;;;2.37;65.88;97625.19;5048387;28;20140;-75
2022/02/23 01:50:41;;;;;;;1.67;0.95;;;;;;;2.38;65.79;97619.53;5047014;28;20448;-74
2022/02/23 01:53:08;;;;;;;2.13;1.00;;;;;;;2.50;65.65;97634.63;5047863;28;20056;-73
2022/02/23 01:55:35;;;;;;;2.88;1.00;;;;;;;2.51;65.51;97639.72;5046521;28;20044;-73
2022/02/23 01:58:02;;;;;;;3.00;1.30;;;;;;;2.37;65.47;97639.50;5064075;28;20053;-73
2022/02/23 02:00:28;;;;;;;2.42;1.20;;;;;;;2.50;65.20;97646.19;5049148;28;20151;-72
2022/02/23 02:02:54;;;;;;;3.03;1.30;;;;;;;2.32;65.69;97647.59;5048942;28;20047;-73
2022/02/23 02:05:20;;;;;;;2.75;1.20;;;;;;;2.34;65.89;97650.84;5048595;28;20539;-74
2022/02/23 02:07:47;;;;;;;1.85;1.13;;;;;;;2.43;65.51;97647.56;5031370;28;20060;-73
2022/02/23 02:10:14;;;;;;;2.30;1.20;;;;;;;2.45;65.59;97648.91;5064444;28;20120;-73
2022/02/23 02:12:41;;;;;;;1.73;0.90;;;;;;;2.38;65.73;97664.56;5040745;28;20136;-71
2022/02/23 02:15:08;;;;;;;2.33;1.10;;;;;;;2.36;65.54;97650.56;5030548;28;20048;-73
2022/02/23 02:17:36;;;;;;;3.67;1.40;;;;;;;2.41;65.43;97661.31;5046187;28;20564;-72
2022/02/23 02:20:03;;;;;;;2.35;1.05;;;;;;;2.32;65.85;97642.19;5028719;28;20167;-72
2022/02/23 02:22:30;;;;;;;1.80;1.20;;;;;;;2.44;65.42;97665.38;5055059;28;20054;-73
2022/02/23 02:24:57;;;;;;;3.03;1.33;;;;;;;2.27;65.87;97647.59;5048387;28;20092;-69
2022/02/23 02:27:24;;;;;;;2.00;1.13;;;;;;;2.34;65.99;97674.28;5047574;28;20144;-69
2022/02/23 02:29:50;;;;;;;3.63;1.45;;;;;;;2.31;66.15;97658.66;5050267;28;20075;-69
2022/02/23 02:32:17;;;;;;;4.43;1.23;;;;;;;2.32;66.07;97673.75;5044017;28;20050;-70
2022/02/23 02:34:44;;;;;;;2.97;1.27;;;;;;;2.29;66.03;97650.84;5042435;28;20055;-68
2022/02/23 02:37:11;;;;;;;2.38;1.20;;;;;;;2.38;65.98;97672.66;5044372;28;20083;-68
2022/02/23 02:39:38;;;;;;;3.75;1.30;;;;;;;2.35;65.98;97681.31;5045101;28;20048;-69
2022/02/23 02:42:04;;;;;;;2.27;1.20;;;;;;;2.15;66.45;97655.16;5049203;28;20049;-70
2022/02/23 02:44:31;;;;;;;1.58;1.10;;;;;;;2.13;67.00;97675.13;5050311;28;20303;-70
2022/02/23 02:46:58;;;;;;;2.28;1.33;;;;;;;2.09;67.18;97684.84;5047317;28;20049;-68
2022/02/23 02:49:24;;;;;;;2.17;1.05;;;;;;;2.11;67.10;97676.50;5047536;28;20094;-69
2022/02/23 02:51:50;;;;;;;2.85;1.40;;;;;;;2.15;67.15;97679.44;5049910;28;20049;-68
2022/02/23 02:54:16;;;;;;;1.77;1.00;;;;;;;2.29;66.60;97683.19;5048814;28;20059;-70
2022/02/23 02:56:44;;;;;;;2.60;1.40;;;;;;;2.26;66.97;97686.44;5047875;28;20049;-69
2022/02/23 02:59:10;;;;;;;1.77;1.08;;;;;;;2.29;66.86;97690.50;5064072;28;20140;-67
2022/02/23 03:01:36;;;;;;;2.28;1.20;;;;;;;2.40;66.48;97695.59;5031253;28;20161;-69
2022/02/23 03:04:03;;;;;;;3.75;1.50;;;;;;;2.35;66.74;97689.41;5049633;28;20052;-68
2022/02/23 03:06:30;;;;;;;3.27;1.27;;;;;;;2.30;66.54;97692.91;5044996;28;20057;-69
2022/02/23 03:08:56;;;;;;;3.88;1.40;;;;;;;2.39;66.53;97695.84;5044904;28;20308;-68
2022/02/23 03:11:22;;;;;;;2.50;1.25;;;;;;;2.36;66.75;97693.72;5049364;28;20072;-68
2022/02/23 03:13:50;;;;;;;1.67;1.10;;;;;;;2.31;67.11;97701.81;5048511;28;20623;-70
2022/02/23 03:16:17;;;;;;;2.22;1.23;;;;;;;2.31;67.02;97699.91;5045277;28;20067;-68
2022/02/23 03:18:43;;;;;;;2.58;1.30;;;;;;;2.40;66.97;97703.69;5042070;28;20576;-73
2022/02/23 03:21:10;;;;;;;1.13;1.02;;;;;;;2.25;67.73;97701.81;5046896;28;20069;-71
2022/02/23 03:23:37;;;;;;;2.45;1.38;;;;;;;2.39;67.35;97701.25;5046317;28;20045;-73
2022/02/23 03:26:03;;;;;;;4.30;1.10;;;;;;;2.33;67.57;97721.22;5049279;28;20044;-72
2022/02/23 03:28:31;;;;;;;2.45;1.35;;;;;;;2.24;67.82;97710.19;5045948;28;20102;-71
2022/02/23 03:30:58;;;;;;;3.25;1.30;;;;;;;2.13;68.20;97709.38;5048008;28;20052;-72
2022/02/23 03:33:24;;;;;;;3.20;1.48;;;;;;;2.26;67.91;97716.09;5049447;28;20055;-71
2022/02/23 03:35:51;;;;;;;7.20;1.48;;;;;;;2.32;67.64;97717.72;5044832;28;20135;-70
2022/02/23 03:38:17;;;;;;;2.87;1.13;;;;;;;2.25;67.48;97722.59;5048486;28;20045;-71
2022/02/23 03:40:44;;;;;;;4.53;1.35;;;;;;;2.17;67.74;97723.94;5047687;28;20718;-70
2022/02/23 03:43:10;;;;;;;2.10;1.17;;;;;;;2.22;67.55;97713.13;5047782;28;20068;-71
2022/02/23 03:45:37;;;;;;;3.15;1.40;;;;;;;2.06;68.21;97725.84;5047782;28;20099;-71
2022/02/23 03:48:05;;;;;;;2.20;1.23;;;;;;;2.12;68.16;97746.31;5048046;28;20068;-69
2022/02/23 03:50:31;;;;;;;1.98;1.13;;;;;;;2.13;68.08;97731.75;5044169;28;20073;-69
2022/02/23 03:52:57;;;;;;;2.35;1.17;;;;;;;2.06;68.27;97738.50;5048027;28;20047;-71
2022/02/23 03:55:23;;;;;;;2.92;1.30;;;;;;;1.97;68.65;97722.03;5050347;28;20037;-69
2022/02/23 03:57:49;;;;;;;2.13;1.30;;;;;;;2.15;68.32;97727.97;5047699;28;20174;-71
2022/02/23 04:00:16;;;;;;;3.63;1.60;;;;;;;2.11;68.15;97714.25;5046119;28;20151;-70
2022/02/23 04:02:43;;;;;;;;;;;;;;;2.14;67.99;97713.69;5031358;28;20071;-70
2022/02/23 04:05:11;;;;;;;4.75;1.77;;;;;;;2.16;68.00;97727.72;5048225;28;19929;-68
2022/02/23 04:07:38;;;;;;;3.97;1.40;;;;;;;2.11;68.32;97738.50;5048854;28;20460;-70
2022/02/23 04:10:06;;;;;;;5.27;1.90;;;;;;;2.18;68.22;97727.44;5048030;28;20045;-69
2022/02/23 04:12:32;;;;;;;4.45;1.70;;;;;;;2.23;67.88;97732.84;5047585;28;20048;-68
2022/02/23 04:14:59;;;;;;;4.00;1.50;;;;;;;2.19;67.86;97712.91;5043338;28;20055;-69
2022/02/23 04:17:25;;;;;;;3.27;1.40;;;;;;;2.24;67.96;97729.06;5048540;28;20525;-68
2022/02/23 04:19:51;;;;;;;3.25;1.55;;;;;;;2.30;67.91;97727.16;5047278;28;20343;-69
2022/02/23 04:22:18;;;;;;;4.97;1.70;;;;;;;2.22;68.36;97745.50;5045912;28;20057;-68
2022/02/23 04:24:44;;;;;;;3.92;1.50;;;;;;;2.37;67.76;97736.59;5061511;28;20044;-68
2022/02/23 04:27:10;;;;;;;4.63;1.50;;;;;;;2.40;67.70;97733.34;5048358;28;20049;-68
2022/02/23 04:32:21;;;;;;;4.32;1.65;;;;;;;2.40;67.73;97751.41;5044939;28;20547;-68
2022/02/23 04:34:48;;;;;;;2.30;1.30;;;;;;;2.36;67.89;97750.34;5047462;28;20276;-68
2022/02/23 04:37:14;;;;;;;3.60;1.50;;;;;;;2.31;67.96;97736.88;5047529;28;20098;-69
2022/02/23 04:39:41;;;;;;;6.10;1.42;;;;;;;2.21;68.07;97735.78;5045858;28;20311;-69
2022/02/23 04:42:09;;;;;;;2.65;1.50;;;;;;;2.25;68.09;97755.75;5047514;28;20045;-68
2022/02/23 04:44:35;;;;;;;4.43;1.70;;;;;;;2.31;68.15;97755.75;5026519;28;20417;-69
2022/02/23 04:47:02;;;;;;;2.88;1.40;;;;;;;2.21;68.60;97760.06;5048142;28;20051;-69
2022/02/23 04:49:28;;;;;;;2.42;1.40;;;;;;;2.30;68.53;97754.94;5047627;28;20532;-68
2022/02/23 04:51:54;;;;;;;6.18;1.85;;;;;;;2.26;68.56;97768.16;5046749;28;20045;-69
2022/02/23 04:54:20;;;;;;;5.15;1.63;;;;;;;2.28;68.58;97764.41;5048348;28;20468;-68
2022/02/23 04:56:47;;;;;;;3.35;1.40;;;;;;;2.21;68.77;97762.75;5048068;28;20072;-68
2022/02/23 04:59:13;;;;;;;4.43;1.90;;;;;;;2.25;68.69;97761.13;5047927;28;20133;-69
2022/02/23 05:01:39;;;;;;;3.22;1.58;;;;;;;2.22;69.05;97766.28;5015766;28;20053;-68
2022/02/23 05:04:05;;;;;;;3.83;1.63;;;;;;;2.20;69.02;97781.94;5052047;28;20439;-68
2022/02/23 05:06:31;;;;;;;5.55;1.80;;;;;;;2.25;68.94;97763.84;5051137;28;20043;-69
2022/02/23 05:08:57;;;;;;;4.10;1.73;;;;;;;2.13;68.97;97752.53;5051459;28;20057;-69
2022/02/23 05:11:24;;;;;;;3.47;1.60;;;;;;;2.25;69.21;97790.00;5051195;28;20401;-68
2022/02/23 05:13:52;;;;;;;3.05;1.60;;;;;;;2.20;69.29;97814.28;5051170;28;20480;-70
2022/02/23 05:16:21;;;;;;;3.17;1.50;;;;;;;2.00;70.12;97785.41;5033551;28;20132;-69
2022/02/23 05:18:47;;;;;;;4.22;1.80;;;;;;;2.07;70.02;97794.03;5050041;28;20045;-70
2022/02/23 05:21:14;;;;;;;5.57;2.10;;;;;;;2.00;70.42;97796.19;5049756;28;20043;-70
2022/02/23 05:23:40;;;;;;;3.55;1.70;;;;;;;1.93;70.61;97810.72;5049861;28;20456;-70
2022/02/23 05:26:07;;;;;;;4.22;1.70;;;;;;;2.00;70.83;97806.97;5051337;28;20041;-68
2022/02/23 05:28:35;;;;;;;5.15;2.05;;;;;;;1.91;70.72;97810.19;5051848;28;20141;-68
2022/02/23 05:31:02;;;;;;;4.72;2.10;;;;;;;1.76;71.59;97819.06;5049139;28;20049;-69
2022/02/23 05:33:28;;;;;;;5.30;1.90;;;;;;;1.82;71.49;97815.28;5045172;28;20056;-69
2022/02/23 05:35:54;;;;;;;3.60;1.75;;;;;;;1.73;71.91;97821.47;5051282;28;20135;-68
2022/02/23 05:38:20;;;;;;;5.13;2.20;;;;;;;1.78;71.99;97818.78;5051454;28;20136;-69
2022/02/23 05:40:46;;;;;;;3.75;1.80;;;;;;;1.80;71.85;97816.66;5050667;28;20048;-70
2022/02/23 05:43:12;;;;;;;4.82;1.92;;;;;;;1.77;71.89;97831.44;5048299;28;20536;-70
2022/02/23 05:45:38;;;;;;;5.32;1.90;;;;;;;1.68;72.27;97819.56;5045959;28;20125;-68
2022/02/23 05:48:05;;;;;;;4.50;2.03;;;;;;;1.66;72.43;97843.25;5049281;28;20037;-69
2022/02/23 05:50:31;;;;;;;3.70;1.80;;;;;;;1.59;72.77;97827.34;5049736;28;20049;-70
2022/02/23 05:52:57;;;;;;;11.40;2.30;;;;;;;1.83;72.24;97843.84;5046824;28;20981;-74
2022/02/23 05:55:23;;;;;;;6.50;2.15;;;;;;;1.77;72.34;97836.84;5046087;28;20107;-69
2022/02/23 05:57:49;;;;;;;3.42;1.70;;;;;;;1.61;72.93;97852.13;5044430;28;20143;-72
2022/02/23 06:00:16;;;;;;;3.47;1.80;;;;;;;1.69;72.75;97848.13;5043850;28;20497;-70
2022/02/23 06:02:42;;;;;;;4.20;1.90;;;;;;;1.80;72.37;97841.69;5044183;28;20041;-72
2022/02/23 06:05:09;;;;;;;5.40;1.90;;;;;;;1.68;72.97;97850.03;5045332;28;20040;-72
2022/02/23 06:07:36;;;;;;;5.00;3.03;;;;;;;1.84;72.28;97853.56;5045682;28;20555;-72
2022/02/23 06:10:02;;;;;;;4.40;2.22;;;;;;;1.80;72.47;97851.69;5047728;28;20453;-70
2022/02/23 06:12:29;;;;;;;5.72;2.17;;;;;;;1.89;72.11;97855.47;5048590;28;20183;-72
2022/02/23 06:14:55;;;;;;;7.03;2.30;;;;;;;1.99;71.76;97865.47;5048133;28;20497;-71
2022/02/23 06:17:21;;;;;;;4.93;1.90;;;;;;;1.94;71.66;97874.34;5047908;28;20049;-72
2022/02/23 06:19:47;;;;;;;6.53;2.20;;;;;;;1.89;71.96;97879.72;5050073;28;20075;-72
2022/02/23 06:22:14;;;;;;;5.22;2.10;;;;;;;1.79;71.79;97867.03;5047478;28;20048;-71
2022/02/23 06:24:40;;;;;;;8.37;1.93;;;;;;;2.08;71.13;97873.84;5045025;28;20532;-71
2022/02/23 06:27:06;;;;;;;7.22;2.20;;;;;;;2.10;70.90;97872.50;5030893;28;20041;-72
2022/02/23 06:29:32;;;;;;;4.78;1.90;;;;;;;2.11;70.77;97876.81;5049229;28;20045;-71
2022/02/23 06:32:03;;;;;;;3.83;1.60;;;;;;;2.21;70.63;97880.63;5049504;28;20107;-71
2022/02/23 06:34:29;;;;;;;4.45;1.70;;;;;;;2.21;70.18;97877.94;5048533;28;20539;-70
2022/02/23 06:36:56;;;;;;;4.95;1.95;;;;;;;2.22;70.36;97887.63;5049928;28;20516;-69
2022/02/23 06:39:22;;;;;;;3.63;1.50;;;;;;;2.33;70.05;97889.25;5049761;28;20053;-70
2022/02/23 06:41:48;;;;;;;5.75;2.00;;;;;;;2.33;69.93;97891.16;5050207;28;20053;-69
2022/02/23 06:44:20;;;;;;;4.25;1.77;;;;;;;2.31;70.15;97896.00;5047180;28;20064;-68
2022/02/23 06:46:47;;;;;;;5.45;1.65;;;;;;;2.33;69.87;97897.34;5044096;28;20404;-69
2022/02/23 06:49:13;;;;;;;3.95;1.45;;;;;;;2.35;69.93;97906.00;5046549;28;20418;-71
2022/02/23 06:51:40;;;;;;;4.65;1.90;;;;;;;2.40;69.81;97911.41;5049741;28;20099;-69
2022/02/23 06:54:06;;;;;;;3.30;1.60;;;;;;;2.35;70.01;97907.88;5043652;28;20048;-70
2022/02/23 06:56:33;;;;;;;3.10;1.55;;;;;;;2.34;69.88;97900.88;5046922;28;20041;-69
2022/02/23 06:59:03;;;;;;;4.07;1.90;;;;;;;2.43;69.71;97903.84;5046441;28;20045;-68
2022/02/23 07:01:29;;;;;;;5.53;2.03;;;;;;;2.49;69.67;97913.56;5030170;28;20053;-69
2022/02/23 07:03:55;;;;;;;6.32;1.80;;;;;;;2.50;69.40;97899.00;5047093;28;20053;-69
2022/02/23 07:06:21;;;;;;;4.78;1.50;;;;;;;2.50;69.53;97912.50;5048710;28;20505;-69
2022/02/23 07:08:51;;;;;;;3.97;1.70;;;;;;;2.54;69.50;97911.69;5047862;28;20055;-68
2022/02/23 07:11:18;;;;;;;5.60;1.83;;;;;;;2.52;69.53;97921.94;5044893;28;20044;-66
2022/02/23 07:13:45;;;;;;;4.20;1.73;;;;;;;2.51;69.66;97924.91;5045807;28;20057;-66
2022/02/23 07:16:12;;;;;;;3.30;1.40;;;;;;;2.57;69.30;97914.91;5042571;28;20048;-67
2022/02/23 07:18:39;;;;;;;3.92;1.73;;;;;;;2.63;69.22;97924.66;5047016;28;20100;-67
2022/02/23 07:21:06;;;;;;;4.65;1.83;;;;;;;2.65;69.14;97922.50;5049122;28;20536;-66
2022/02/23 07:23:32;;;;;;;5.25;1.85;;;;;;;2.72;68.83;97922.22;5064313;28;20541;-67
2022/02/23 07:25:58;;;;;;;9.70;3.40;;;;;;;2.76;68.71;97924.13;5042853;28;20041;-68
2022/02/23 07:28:24;;;;;;;9.23;3.47;;;;;;;2.79;68.51;97938.94;5017454;28;20045;-67
2022/02/23 07:30:51;;;;;;;11.52;4.97;;;;;;;2.70;68.37;97933.28;5044446;28;20077;-72
2022/02/23 07:33:18;;;;;;;9.30;3.47;;;;;;;2.72;68.59;97927.63;5048686;28;20052;-74
2022/02/23 07:35:45;;;;;;;7.32;2.90;;;;;;;2.70;68.21;97933.28;5041435;28;20139;-74
2022/02/23 07:38:11;;;;;;;10.52;3.38;;;;;;;2.79;68.03;97947.03;5044922;28;20080;-75
2022/02/23 07:40:37;;;;;;;11.02;4.10;;;;;;;2.83;68.01;97938.16;5048644;28;20504;-74
2022/02/23 07:43:04;;;;;;;10.65;3.47;;;;;;;2.89;67.72;97957.84;5048187;28;20523;-74
2022/02/23 07:45:30;;;;;;;8.77;3.28;;;;;;;2.99;67.21;97957.06;5043240;28;20048;-74
2022/02/23 07:47:58;;;;;;;9.85;3.60;;;;;;;3.00;67.14;97961.38;5048164;28;20046;-74
2022/02/23 07:50:25;;;;;;;11.23;4.75;;;;;;;2.95;66.98;97951.38;5031024;28;20424;-74
2022/02/23 07:52:51;;;;;;;10.23;3.75;;;;;;;3.07;67.06;97963.81;5047561;28;20055;-73
2022/02/23 07:55:18;;;;;;;9.80;3.47;;;;;;;3.10;66.78;97965.97;5049232;28;20059;-74
2022/02/23 07:57:45;;;;;;;10.10;3.80;;;;;;;3.12;66.86;97964.63;5043653;28;20053;-75
2022/02/23 08:00:12;;;;;;;10.80;4.13;;;;;;;3.15;66.58;97976.78;5048795;28;20730;-73
2022/02/23 08:02:39;;;;;;;14.25;5.75;;;;;;;3.29;66.50;97974.31;5046160;28;20045;-74
2022/02/23 08:05:07;;;;;;;14.38;6.63;;;;;;;3.30;66.14;97975.16;5049316;28;20081;-74
2022/02/23 08:07:34;;;;;;;12.93;5.13;;;;;;;3.23;66.01;97976.22;5048400;28;20052;-74
2022/02/23 08:10:00;;;;;;;14.65;5.32;;;;;;;3.28;65.80;97985.38;5034016;28;20430;-75
2022/02/23 08:12:26;;;;;;;9.55;3.78;;;;;;;3.28;65.84;97993.50;5033265;28;20049;-74
2022/02/23 08:14:54;;;;;;;7.72;3.17;;;;;;;3.25;65.81;97992.16;5047698;28;20048;-74
2022/02/23 08:20:08;;;;;;;11.48;3.72;;;;;;;3.39;65.48;97995.94;5040495;28;20064;-75
2022/02/23 08:22:35;;;;;;;7.88;3.08;;;;;;;3.35;64.99;97994.03;5048239;28;20163;-75
2022/02/23 08:25:02;;;;;;;7.78;3.30;;;;;;;3.34;64.90;97997.84;5045934;28;20106;-73
2022/02/23 08:27:31;;;;;;;7.47;2.40;;;;;;;3.39;65.01;98005.94;5028025;28;20107;-73
2022/02/23 08:29:58;;;;;;;10.90;3.83;;;;;;;3.50;64.61;98010.25;5028306;28;20052;-74
2022/02/23 08:32:24;;;;;;;13.45;4.55;;;;;;;3.50;64.20;97994.03;5044057;28;20045;-73
2022/02/23 08:34:54;;;;;;;13.73;5.43;;;;;;;3.54;63.88;98016.72;5043444;28;20049;-73
2022/02/23 08:37:21;;;;;;;11.07;5.10;;;;;;;3.51;63.91;98017.28;5044112;28;20049;-74
2022/02/23 08:39:48;;;;;;;11.15;4.90;;;;;;;3.57;63.92;98019.97;5046186;28;20065;-73
2022/02/23 08:42:15;;;;;;;12.57;4.45;;;;;;;3.65;63.81;98020.22;5042226;28;20415;-73
2022/02/23 08:44:42;;;;;;;6.60;3.15;;;;;;;3.59;63.58;98031.31;5021216;28;20405;-73
2022/02/23 08:47:09;;;;;;;8.27;3.58;;;;;;;3.58;63.81;98032.38;5041504;28;20049;-73
2022/02/23 08:49:36;;;;;;;7.68;3.03;;;;;;;3.61;63.74;98039.97;5043868;28;20464;-74
2022/02/23 08:52:02;;;;;;;8.75;3.10;;;;;;;3.65;63.67;98035.63;5044772;28;20512;-75
2022/02/23 08:54:29;;;;;;;13.93;3.65;;;;;;;3.69;63.44;98036.69;5045980;28;20123;-69
2022/02/23 08:56:55;;;;;;;8.48;2.80;;;;;;;3.67;63.38;98033.47;5042674;28;20053;-70
2022/02/23 08:59:21;;;;;;;8.52;3.10;;;;;;;3.61;63.38;98038.06;5044906;28;20048;-70
2022/02/23 09:01:47;;;;;;;4.88;2.20;;;;;;;3.71;63.19;98047.25;5043644;28;20393;-70
2022/02/23 09:04:13;;;;;;;5.53;2.22;;;;;;;3.74;63.09;98055.59;5044701;28;20051;-70
2022/02/23 09:06:40;;;;;;;6.43;2.63;;;;;;;3.78;62.92;98050.47;5046035;28;20045;-70
2022/02/23 09:09:10;;;;;;;10.45;4.80;;;;;;;3.65;62.96;98032.94;5043611;28;20136;-70
2022/02/23 09:11:38;;;;;;;12.93;5.68;;;;;;;3.73;62.62;98056.69;5043708;28;20053;-70
2022/02/23 09:14:04;;;;;;;10.93;4.47;;;;;;;3.86;62.66;98063.47;5057994;28;20049;-70
2022/02/23 09:16:30;;;;;;;13.10;3.10;;;;;;;3.94;62.37;98065.59;5044868;28;20052;-70
2022/02/23 09:18:56;;;;;;;6.80;2.42;;;;;;;3.82;62.01;98049.66;5043587;28;20406;-69
2022/02/23 09:21:22;;;;;;;5.88;2.30;;;;;;;3.86;62.10;98065.34;5046399;28;20043;-71
2022/02/23 09:23:48;;;;;;;7.45;2.55;;;;;;;3.94;61.83;98081.81;5045798;28;20061;-70
2022/02/23 09:26:15;;;;;;;9.23;3.72;;;;;;;3.87;62.04;98081.28;5045451;28;20045;-69
2022/02/23 09:28:43;;;;;;;8.65;3.50;;;;;;;3.89;61.95;98072.91;5045382;28;20057;-70
2022/02/23 09:31:10;;;;;;;;;;;;;;;3.87;62.00;98083.19;5060546;28;20631;-70
2022/02/23 09:33:36;;;;;;;8.70;2.80;;;;;;;3.89;61.92;98075.59;5046493;28;20670;-70
2022/02/23 09:36:04;;;;;;;11.77;3.10;;;;;;;4.02;61.72;98085.84;5040253;28;20068;-70
2022/02/23 09:38:31;;;;;;;8.20;2.78;;;;;;;3.98;61.36;98090.19;5045441;28;20069;-70
2022/02/23 09:40:59;;;;;;;10.05;3.38;;;;;;;4.02;61.43;98093.97;5044675;28;20056;-69
2022/02/23 09:43:25;;;;;;;9.93;4.50;;;;;;;4.06;61.53;98089.66;5044680;28;20056;-70
2022/02/23 09:45:54;;;;;;;10.27;3.75;;;;;;;4.14;61.33;98096.41;5046778;28;20143;-75
2022/02/23 09:48:21;;;;;;;10.18;3.80;;;;;;;4.21;61.21;98096.09;5048994;28;20132;-68
2022/02/23 09:50:47;;;;;;;8.50;3.10;;;;;;;4.31;61.03;98106.91;5048034;28;20413;-70
2022/02/23 09:53:14;;;;;;;8.50;2.65;;;;;;;4.35;60.79;98102.53;5049495;28;20045;-71
2022/02/23 09:55:41;;;;;;;4.22;1.90;;;;;;;4.28;60.81;98112.03;5047449;28;20053;-72
2022/02/23 09:58:07;;;;;;;4.53;1.98;;;;;;;4.29;60.75;98102.84;5047364;28;20051;-71
2022/02/23 10:00:34;;;;;;;4.63;1.80;;;;;;;4.37;60.29;98122.06;5046822;28;20072;-71
2022/02/23 10:03:01;;;;;;;5.82;1.80;;;;;;;4.30;60.11;98113.38;5046679;28;20045;-71
2022/02/23 10:05:27;;;;;;;4.35;1.83;;;;;;;4.39;60.08;98124.47;5049472;28;20060;-71
2022/02/23 10:08:03;;;;;;;2.80;1.45;;;;;;;4.38;59.99;98134.50;5046962;28;20052;-69
2022/02/23 10:10:32;;;;;;;4.03;1.70;;;;;;;4.32;59.71;98140.19;5064705;28;20048;-74
2022/02/23 10:13:03;;;;;;;5.20;2.03;;;;;;;4.28;60.10;98139.09;5049044;28;20045;-73
2022/02/23 10:15:30;;;;;;;5.40;1.80;;;;;;;4.26;60.10;98142.09;5060136;28;20144;-75
2022/02/23 10:18:07;;;;;;;3.97;1.63;;;;;;;4.26;60.27;98152.91;5048104;28;20053;-72
2022/02/23 10:20:36;;;;;;;4.78;1.63;;;;;;;4.03;60.58;98157.00;5046118;28;20049;-72
2022/02/23 10:23:07;;;;;;;3.38;1.60;;;;;;;4.07;60.88;98158.91;5046318;28;20053;-74
2022/02/23 10:25:36;;;;;;;6.80;2.20;;;;;;;4.09;61.01;98162.13;5040337;28;20071;-73
2022/02/23 10:28:07;;;;;;;9.77;2.65;;;;;;;4.07;60.77;98169.72;5051040;28;20118;-73
2022/02/23 10:30:33;;;;;;;16.60;2.72;;;;;;;4.11;61.02;98169.97;5047723;28;20049;-73
2022/02/23 10:33:13;;;;;;;8.40;2.40;;;;;;;4.27;60.72;98168.06;5046173;28;20045;-73
2022/02/23 10:35:48;;;;;;;5.38;2.30;;;;;;;4.26;60.38;98167.25;5047168;28;20123;-73
2022/02/23 10:38:20;;;;;;;6.35;1.88;;;;;;;4.28;60.58;98182.38;5062354;28;20118;-72
2022/02/23 10:40:46;;;;;;;6.00;2.33;;;;;;;4.28;60.43;98195.91;5045398;28;20452;-72
2022/02/23 10:43:30;;;;;;;4.90;1.85;;;;;;;4.23;60.51;98188.63;5047743;28;20489;-75
2022/02/23 10:46:07;;;;;;;5.20;2.00;;;;;;;4.29;60.49;98203.78;5043997;28;20259;-72
2022/02/23 10:48:37;;;;;;;7.60;2.35;;;;;;;4.26;60.61;98215.94;5041192;28;20064;-73
2022/02/23 10:51:05;;;;;;;4.88;1.85;;;;;;;4.22;60.47;98201.34;5048336;28;20088;-74
2022/02/23 10:53:32;;;;;;;7.93;2.78;;;;;;;4.29;60.39;98205.66;5050446;28;20048;-73
2022/02/23 10:55:59;;;;;;;18.83;5.32;;;;;;;4.21;60.44;98212.44;5048337;28;20049;-72
2022/02/23 10:58:26;;;;;;;10.20;4.57;;;;;;;4.21;60.20;98204.31;5046328;28;20057;-73
2022/02/23 11:00:55;;;;;;;13.20;4.63;;;;;;;4.33;60.05;98215.66;5046245;28;20512;-72
2022/02/23 11:03:23;;;;;;;8.35;3.13;;;;;;;4.37;59.62;98224.06;5047526;28;20049;-74
2022/02/23 11:05:51;;;;;;;7.57;2.38;;;;;;;4.25;59.67;98235.97;5061195;28;20531;-75
2022/02/23 11:08:19;;;;;;;4.43;2.10;;;;;;;4.25;59.97;98230.56;5030505;28;20045;-76
2022/02/23 11:10:47;;;;;;;6.32;2.15;;;;;;;4.27;59.89;98235.72;5048122;28;20055;-74
2022/02/23 11:13:18;;;;;;;4.47;1.80;;;;;;;4.24;59.99;98231.66;5046546;28;20041;-75
2022/02/23 11:15:46;;;;;;;8.07;2.03;;;;;;;4.03;60.25;98206.47;5045526;28;20060;-72
2022/02/23 11:18:15;;;;;;;5.13;1.88;;;;;;;4.27;59.67;98233.00;5047122;28;20041;-73
2022/02/23 11:20:42;;;;;;;3.50;1.63;;;;;;;4.31;59.15;98233.28;5045818;28;20056;-76
2022/02/23 11:23:15;;;;;;;5.22;1.73;;;;;;;4.19;58.23;98237.06;5043094;28;20057;-75
2022/02/23 11:25:42;;;;;;;3.60;1.60;;;;;;;4.23;58.75;98259.78;5028341;28;20078;-76
2022/02/23 11:28:16;;;;;;;7.50;2.00;;;;;;;4.28;58.50;98255.44;5045550;28;20413;-75
2022/02/23 11:30:46;;;;;;;8.50;2.22;;;;;;;4.20;58.38;98256.81;5041952;28;20190;-75
2022/02/23 11:33:13;;;;;;;6.88;2.60;;;;;;;4.31;58.29;98265.75;5030259;28;20072;-75
2022/02/23 11:35:40;;;;;;;6.30;2.25;;;;;;;4.23;58.27;98257.06;5048073;28;20052;-75
2022/02/23 11:38:06;;;;;;;8.35;3.15;;;;;;;4.25;58.27;98281.16;5045521;28;20202;-75
2022/02/23 11:40:48;;;;;;;5.55;2.10;;;;;;;4.02;58.55;98286.00;5042774;28;20535;-73
2022/02/23 11:43:29;;;;;;;6.43;2.53;;;;;;;3.98;58.39;98287.63;5045084;28;20505;-74
2022/02/23 11:45:56;;;;;;;7.15;2.55;;;;;;;4.02;58.37;98290.63;5035563;28;20504;-74